sensor_id;sensor_type;location;lat;lon;timestamp;P1;durP1;ratioP1;P2;durP2;ratioP2
65552;SDS011;52465;51.560;14.368;2023-02-28T00:01:23;10.88;;;9.13;;
65552;SDS011;52465;51.560;14.368;2023-02-28T00:03:49;10.20;;;9.07;;
65552;SDS011;52465;51.560;14.368;2023-02-28T00:06:15;12.20;;;8.57;;
65552;SDS011;52465;51.560;14.368;2023-02-28T00:08:41;12.15;;;8.98;;
65552;SDS011;52465;51.560;14.368;2023-02-28T00:11:07;8.55;;;7.70;;
65552;SDS011;52465;51.560;14.368;2023-02-28T00:13:35;9.45;;;8.60;;
65552;SDS011;52465;51.560;14.368;2023-02-28T00:16:05;9.43;;;8.37;;
65552;SDS011;52465;51.560;14.368;2023-02-28T00:18:32;11.68;;;8.38;;
65552;SDS011;52465;51.560;14.368;2023-02-28T00:20:58;13.18;;;8.73;;
65552;SDS011;52465;51.560;14.368;2023-02-28T00:23:24;11.45;;;9.02;;
65552;SDS011;52465;51.560;14.368;2023-02-28T00:25:50;10.55;;;8.98;;
65552;SDS011;52465;51.560;14.368;2023-02-28T00:28:15;9.80;;;8.80;;
65552;SDS011;52465;51.560;14.368;2023-02-28T00:30:41;12.82;;;8.90;;
65552;SDS011;52465;51.560;14.368;2023-02-28T00:33:07;9.15;;;8.30;;
65552;SDS011;52465;51.560;14.368;2023-02-28T00:35:33;10.57;;;8.35;;
65552;SDS011;52465;51.560;14.368;2023-02-28T00:38:02;9.98;;;8.27;;
65552;SDS011;52465;51.560;14.368;2023-02-28T00:40:27;9.93;;;8.93;;
65552;SDS011;52465;51.560;14.368;2023-02-28T00:42:53;9.13;;;8.43;;
65552;SDS011;52465;51.560;14.368;2023-02-28T00:45:19;10.57;;;9.02;;
65552;SDS011;52465;51.560;14.368;2023-02-28T00:47:44;10.95;;;8.73;;
65552;SDS011;52465;51.560;14.368;2023-02-28T00:50:12;9.98;;;9.00;;
65552;SDS011;52465;51.560;14.368;2023-02-28T00:52:38;10.02;;;8.98;;
65552;SDS011;52465;51.560;14.368;2023-02-28T00:55:03;10.00;;;9.10;;
65552;SDS011;52465;51.560;14.368;2023-02-28T00:57:29;8.80;;;7.95;;
65552;SDS011;52465;51.560;14.368;2023-02-28T00:59:55;9.23;;;8.30;;
65552;SDS011;52465;51.560;14.368;2023-02-28T01:02:21;10.43;;;9.35;;
65552;SDS011;52465;51.560;14.368;2023-02-28T01:04:48;10.30;;;8.93;;
65552;SDS011;52465;51.560;14.368;2023-02-28T01:07:13;12.07;;;8.80;;
65552;SDS011;52465;51.560;14.368;2023-02-28T01:09:39;12.63;;;8.75;;
65552;SDS011;52465;51.560;14.368;2023-02-28T01:12:06;14.48;;;8.48;;
65552;SDS011;52465;51.560;14.368;2023-02-28T01:14:32;12.68;;;9.05;;
65552;SDS011;52465;51.560;14.368;2023-02-28T01:16:59;10.27;;;9.30;;
65552;SDS011;52465;51.560;14.368;2023-02-28T01:19:25;9.27;;;8.43;;
65552;SDS011;52465;51.560;14.368;2023-02-28T01:21:50;13.45;;;9.63;;
65552;SDS011;52465;51.560;14.368;2023-02-28T01:24:19;11.90;;;8.90;;
65552;SDS011;52465;51.560;14.368;2023-02-28T01:26:44;11.65;;;9.32;;
65552;SDS011;52465;51.560;14.368;2023-02-28T01:29:09;10.95;;;8.57;;
65552;SDS011;52465;51.560;14.368;2023-02-28T01:31:38;9.90;;;8.90;;
65552;SDS011;52465;51.560;14.368;2023-02-28T01:34:03;9.50;;;8.68;;
65552;SDS011;52465;51.560;14.368;2023-02-28T01:36:29;11.43;;;8.88;;
65552;SDS011;52465;51.560;14.368;2023-02-28T01:41:39;10.30;;;9.30;;
65552;SDS011;52465;51.560;14.368;2023-02-28T01:47:10;9.95;;;8.95;;
65552;SDS011;52465;51.560;14.368;2023-02-28T01:49:54;10.15;;;9.25;;
65552;SDS011;52465;51.560;14.368;2023-02-28T01:52:20;10.55;;;9.38;;
65552;SDS011;52465;51.560;14.368;2023-02-28T01:54:51;10.00;;;9.00;;
65552;SDS011;52465;51.560;14.368;2023-02-28T01:57:20;10.75;;;8.93;;
65552;SDS011;52465;51.560;14.368;2023-02-28T01:59:53;10.02;;;8.65;;
65552;SDS011;52465;51.560;14.368;2023-02-28T02:02:26;9.93;;;8.93;;
65552;SDS011;52465;51.560;14.368;2023-02-28T02:04:55;9.85;;;8.88;;
65552;SDS011;52465;51.560;14.368;2023-02-28T02:07:24;10.02;;;9.13;;
65552;SDS011;52465;51.560;14.368;2023-02-28T02:09:59;10.95;;;8.93;;
65552;SDS011;52465;51.560;14.368;2023-02-28T02:15:56;10.55;;;8.77;;
65552;SDS011;52465;51.560;14.368;2023-02-28T02:21:59;10.85;;;9.05;;
65552;SDS011;52465;51.560;14.368;2023-02-28T02:36:18;9.38;;;8.57;;
65552;SDS011;52465;51.560;14.368;2023-02-28T02:39:14;9.10;;;8.15;;
65552;SDS011;52465;51.560;14.368;2023-02-28T02:41:54;10.55;;;9.02;;
65552;SDS011;52465;51.560;14.368;2023-02-28T02:44:31;9.60;;;8.80;;
65552;SDS011;52465;51.560;14.368;2023-02-28T02:47:12;12.65;;;9.38;;
65552;SDS011;52465;51.560;14.368;2023-02-28T02:49:43;9.68;;;8.27;;
65552;SDS011;52465;51.560;14.368;2023-02-28T02:52:15;10.60;;;8.65;;
65552;SDS011;52465;51.560;14.368;2023-02-28T02:54:47;15.65;;;9.18;;
65552;SDS011;52465;51.560;14.368;2023-02-28T02:57:23;10.18;;;8.90;;
65552;SDS011;52465;51.560;14.368;2023-02-28T02:59:55;8.75;;;8.00;;
65552;SDS011;52465;51.560;14.368;2023-02-28T03:02:23;10.57;;;9.57;;
65552;SDS011;52465;51.560;14.368;2023-02-28T03:04:53;9.65;;;8.70;;
65552;SDS011;52465;51.560;14.368;2023-02-28T03:07:25;10.63;;;9.40;;
65552;SDS011;52465;51.560;14.368;2023-02-28T03:09:53;10.52;;;9.15;;
65552;SDS011;52465;51.560;14.368;2023-02-28T03:12:19;9.63;;;8.48;;
65552;SDS011;52465;51.560;14.368;2023-02-28T03:17:43;9.73;;;8.85;;
65552;SDS011;52465;51.560;14.368;2023-02-28T03:23:13;11.05;;;9.38;;
65552;SDS011;52465;51.560;14.368;2023-02-28T03:25:52;10.77;;;8.68;;
65552;SDS011;52465;51.560;14.368;2023-02-28T03:31:19;9.63;;;8.57;;
65552;SDS011;52465;51.560;14.368;2023-02-28T03:33:53;11.98;;;9.45;;
65552;SDS011;52465;51.560;14.368;2023-02-28T03:36:33;9.20;;;8.30;;
65552;SDS011;52465;51.560;14.368;2023-02-28T03:39:12;10.30;;;8.82;;
65552;SDS011;52465;51.560;14.368;2023-02-28T03:41:45;10.00;;;9.13;;
65552;SDS011;52465;51.560;14.368;2023-02-28T03:47:07;10.05;;;8.93;;
65552;SDS011;52465;51.560;14.368;2023-02-28T03:49:40;9.98;;;8.85;;
65552;SDS011;52465;51.560;14.368;2023-02-28T03:52:12;10.65;;;9.15;;
65552;SDS011;52465;51.560;14.368;2023-02-28T03:54:42;9.20;;;8.40;;
65552;SDS011;52465;51.560;14.368;2023-02-28T03:57:23;9.80;;;8.80;;
65552;SDS011;52465;51.560;14.368;2023-02-28T03:59:59;9.75;;;8.80;;
65552;SDS011;52465;51.560;14.368;2023-02-28T04:02:31;9.48;;;8.60;;
65552;SDS011;52465;51.560;14.368;2023-02-28T04:04:57;9.50;;;8.57;;
65552;SDS011;52465;51.560;14.368;2023-02-28T04:07:23;9.35;;;8.45;;
65552;SDS011;52465;51.560;14.368;2023-02-28T04:09:48;9.68;;;8.90;;
65552;SDS011;52465;51.560;14.368;2023-02-28T04:12:17;9.02;;;8.32;;
65552;SDS011;52465;51.560;14.368;2023-02-28T04:14:46;12.82;;;9.75;;
65552;SDS011;52465;51.560;14.368;2023-02-28T04:17:11;10.07;;;9.20;;
65552;SDS011;52465;51.560;14.368;2023-02-28T04:19:37;9.05;;;8.15;;
65552;SDS011;52465;51.560;14.368;2023-02-28T04:22:02;10.07;;;9.05;;
65552;SDS011;52465;51.560;14.368;2023-02-28T04:24:28;10.98;;;8.77;;
65552;SDS011;52465;51.560;14.368;2023-02-28T04:26:54;12.52;;;9.13;;
65552;SDS011;52465;51.560;14.368;2023-02-28T04:29:22;9.55;;;8.85;;
65552;SDS011;52465;51.560;14.368;2023-02-28T04:31:49;8.90;;;8.20;;
65552;SDS011;52465;51.560;14.368;2023-02-28T04:34:15;9.40;;;8.50;;
65552;SDS011;52465;51.560;14.368;2023-02-28T04:36:41;9.52;;;8.70;;
65552;SDS011;52465;51.560;14.368;2023-02-28T04:39:07;9.43;;;8.70;;
65552;SDS011;52465;51.560;14.368;2023-02-28T04:41:33;9.45;;;8.65;;
65552;SDS011;52465;51.560;14.368;2023-02-28T04:43:58;9.68;;;8.65;;
65552;SDS011;52465;51.560;14.368;2023-02-28T04:46:24;10.00;;;8.98;;
65552;SDS011;52465;51.560;14.368;2023-02-28T04:48:50;9.50;;;8.50;;
65552;SDS011;52465;51.560;14.368;2023-02-28T04:51:17;9.32;;;8.48;;
65552;SDS011;52465;51.560;14.368;2023-02-28T04:53:44;9.90;;;8.95;;
65552;SDS011;52465;51.560;14.368;2023-02-28T04:56:12;10.10;;;9.20;;
65552;SDS011;52465;51.560;14.368;2023-02-28T04:58:38;9.32;;;8.60;;
65552;SDS011;52465;51.560;14.368;2023-02-28T05:01:06;9.95;;;8.90;;
65552;SDS011;52465;51.560;14.368;2023-02-28T05:03:41;10.27;;;9.27;;
65552;SDS011;52465;51.560;14.368;2023-02-28T05:06:07;9.48;;;8.73;;
65552;SDS011;52465;51.560;14.368;2023-02-28T05:08:33;9.93;;;9.02;;
65552;SDS011;52465;51.560;14.368;2023-02-28T05:11:02;9.70;;;8.85;;
65552;SDS011;52465;51.560;14.368;2023-02-28T05:13:28;9.55;;;8.70;;
65552;SDS011;52465;51.560;14.368;2023-02-28T05:15:54;10.18;;;9.35;;
65552;SDS011;52465;51.560;14.368;2023-02-28T05:18:23;10.90;;;9.15;;
65552;SDS011;52465;51.560;14.368;2023-02-28T05:20:48;9.75;;;8.85;;
65552;SDS011;52465;51.560;14.368;2023-02-28T05:23:14;9.60;;;8.70;;
65552;SDS011;52465;51.560;14.368;2023-02-28T05:25:42;9.10;;;8.30;;
65552;SDS011;52465;51.560;14.368;2023-02-28T05:28:07;9.50;;;8.63;;
65552;SDS011;52465;51.560;14.368;2023-02-28T05:30:33;9.38;;;8.65;;
65552;SDS011;52465;51.560;14.368;2023-02-28T05:32:59;9.13;;;8.32;;
65552;SDS011;52465;51.560;14.368;2023-02-28T05:35:25;8.90;;;8.20;;
65552;SDS011;52465;51.560;14.368;2023-02-28T05:37:51;9.38;;;8.55;;
65552;SDS011;52465;51.560;14.368;2023-02-28T05:40:19;9.43;;;8.48;;
65552;SDS011;52465;51.560;14.368;2023-02-28T05:42:46;9.93;;;9.00;;
65552;SDS011;52465;51.560;14.368;2023-02-28T05:45:12;10.65;;;8.57;;
65552;SDS011;52465;51.560;14.368;2023-02-28T05:47:38;10.23;;;9.27;;
65552;SDS011;52465;51.560;14.368;2023-02-28T05:50:03;9.07;;;8.02;;
65552;SDS011;52465;51.560;14.368;2023-02-28T05:52:32;9.35;;;8.55;;
65552;SDS011;52465;51.560;14.368;2023-02-28T05:54:57;9.25;;;8.45;;
65552;SDS011;52465;51.560;14.368;2023-02-28T05:57:23;9.45;;;8.63;;
65552;SDS011;52465;51.560;14.368;2023-02-28T05:59:49;10.10;;;9.13;;
65552;SDS011;52465;51.560;14.368;2023-02-28T06:02:16;9.38;;;8.68;;
65552;SDS011;52465;51.560;14.368;2023-02-28T06:04:42;11.23;;;8.93;;
65552;SDS011;52465;51.560;14.368;2023-02-28T06:07:09;8.98;;;8.32;;
65552;SDS011;52465;51.560;14.368;2023-02-28T06:09:36;9.35;;;8.40;;
65552;SDS011;52465;51.560;14.368;2023-02-28T06:12:02;7.90;;;7.40;;
65552;SDS011;52465;51.560;14.368;2023-02-28T06:14:30;9.48;;;8.70;;
65552;SDS011;52465;51.560;14.368;2023-02-28T06:16:57;9.35;;;8.65;;
65552;SDS011;52465;51.560;14.368;2023-02-28T06:19:24;8.70;;;7.90;;
65552;SDS011;52465;51.560;14.368;2023-02-28T06:21:54;9.48;;;8.73;;
65552;SDS011;52465;51.560;14.368;2023-02-28T06:24:25;9.30;;;8.35;;
65552;SDS011;52465;51.560;14.368;2023-02-28T06:26:52;9.60;;;8.73;;
65552;SDS011;52465;51.560;14.368;2023-02-28T06:29:26;9.00;;;8.25;;
65552;SDS011;52465;51.560;14.368;2023-02-28T06:32:27;8.85;;;8.13;;
65552;SDS011;52465;51.560;14.368;2023-02-28T06:34:53;8.82;;;8.23;;
65552;SDS011;52465;51.560;14.368;2023-02-28T06:37:18;10.10;;;8.38;;
65552;SDS011;52465;51.560;14.368;2023-02-28T06:39:47;11.07;;;8.60;;
65552;SDS011;52465;51.560;14.368;2023-02-28T06:42:12;9.85;;;9.05;;
65552;SDS011;52465;51.560;14.368;2023-02-28T06:44:38;10.50;;;9.55;;
65552;SDS011;52465;51.560;14.368;2023-02-28T06:47:04;18.55;;;12.95;;
65552;SDS011;52465;51.560;14.368;2023-02-28T06:49:32;17.75;;;12.73;;
65552;SDS011;52465;51.560;14.368;2023-02-28T06:51:58;17.40;;;13.15;;
65552;SDS011;52465;51.560;14.368;2023-02-28T06:54:24;18.70;;;12.38;;
65552;SDS011;52465;51.560;14.368;2023-02-28T06:56:55;13.88;;;12.18;;
65552;SDS011;52465;51.560;14.368;2023-02-28T06:59:23;15.77;;;12.23;;
65552;SDS011;52465;51.560;14.368;2023-02-28T07:01:48;16.77;;;12.10;;
65552;SDS011;52465;51.560;14.368;2023-02-28T07:04:14;15.15;;;11.77;;
65552;SDS011;52465;51.560;14.368;2023-02-28T07:06:39;14.18;;;11.38;;
65552;SDS011;52465;51.560;14.368;2023-02-28T07:09:05;18.15;;;11.30;;
65552;SDS011;52465;51.560;14.368;2023-02-28T07:11:31;14.63;;;11.23;;
65552;SDS011;52465;51.560;14.368;2023-02-28T07:13:57;17.13;;;12.48;;
65552;SDS011;52465;51.560;14.368;2023-02-28T07:16:23;19.20;;;12.15;;
65552;SDS011;52465;51.560;14.368;2023-02-28T07:18:52;18.95;;;12.90;;
65552;SDS011;52465;51.560;14.368;2023-02-28T07:21:18;13.73;;;11.65;;
65552;SDS011;52465;51.560;14.368;2023-02-28T07:23:47;18.70;;;12.15;;
65552;SDS011;52465;51.560;14.368;2023-02-28T07:26:14;15.82;;;12.25;;
65552;SDS011;52465;51.560;14.368;2023-02-28T07:28:42;13.45;;;11.23;;
65552;SDS011;52465;51.560;14.368;2023-02-28T07:31:08;15.35;;;12.55;;
65552;SDS011;52465;51.560;14.368;2023-02-28T07:33:35;15.65;;;11.70;;
65552;SDS011;52465;51.560;14.368;2023-02-28T07:36:05;16.38;;;11.77;;
65552;SDS011;52465;51.560;14.368;2023-02-28T07:38:36;13.52;;;12.00;;
65552;SDS011;52465;51.560;14.368;2023-02-28T07:41:02;13.05;;;11.50;;
65552;SDS011;52465;51.560;14.368;2023-02-28T07:43:33;12.18;;;10.80;;
65552;SDS011;52465;51.560;14.368;2023-02-28T07:46:04;11.73;;;10.45;;
65552;SDS011;52465;51.560;14.368;2023-02-28T07:48:31;11.70;;;10.25;;
65552;SDS011;52465;51.560;14.368;2023-02-28T07:51:00;16.10;;;11.52;;
65552;SDS011;52465;51.560;14.368;2023-02-28T07:53:27;13.63;;;11.55;;
65552;SDS011;52465;51.560;14.368;2023-02-28T07:55:59;14.00;;;11.10;;
65552;SDS011;52465;51.560;14.368;2023-02-28T08:00:52;17.25;;;11.75;;
65552;SDS011;52465;51.560;14.368;2023-02-28T08:03:18;14.13;;;10.75;;
65552;SDS011;52465;51.560;14.368;2023-02-28T08:05:50;12.38;;;11.27;;
65552;SDS011;52465;51.560;14.368;2023-02-28T08:08:17;15.15;;;10.95;;
65552;SDS011;52465;51.560;14.368;2023-02-28T08:10:43;12.63;;;10.75;;
65552;SDS011;52465;51.560;14.368;2023-02-28T08:13:08;13.57;;;11.82;;
65552;SDS011;52465;51.560;14.368;2023-02-28T08:15:34;14.07;;;11.90;;
65552;SDS011;52465;51.560;14.368;2023-02-28T08:18:00;13.07;;;11.10;;
65552;SDS011;52465;51.560;14.368;2023-02-28T08:20:25;14.32;;;11.25;;
65552;SDS011;52465;51.560;14.368;2023-02-28T08:22:52;13.73;;;11.00;;
65552;SDS011;52465;51.560;14.368;2023-02-28T08:25:18;13.98;;;11.05;;
65552;SDS011;52465;51.560;14.368;2023-02-28T08:27:47;11.75;;;10.55;;
65552;SDS011;52465;51.560;14.368;2023-02-28T08:30:13;13.00;;;11.63;;
65552;SDS011;52465;51.560;14.368;2023-02-28T08:32:42;12.60;;;11.30;;
65552;SDS011;52465;51.560;14.368;2023-02-28T08:35:07;12.93;;;11.27;;
65552;SDS011;52465;51.560;14.368;2023-02-28T08:37:34;14.05;;;11.20;;
65552;SDS011;52465;51.560;14.368;2023-02-28T08:40:00;13.77;;;11.40;;
65552;SDS011;52465;51.560;14.368;2023-02-28T08:42:26;12.30;;;10.75;;
65552;SDS011;52465;51.560;14.368;2023-02-28T08:44:51;13.88;;;10.90;;
65552;SDS011;52465;51.560;14.368;2023-02-28T08:47:16;14.13;;;11.18;;
65552;SDS011;52465;51.560;14.368;2023-02-28T08:49:43;11.57;;;10.48;;
65552;SDS011;52465;51.560;14.368;2023-02-28T08:52:10;12.02;;;10.90;;
65552;SDS011;52465;51.560;14.368;2023-02-28T08:54:35;18.73;;;12.18;;
65552;SDS011;52465;51.560;14.368;2023-02-28T08:57:02;11.63;;;10.43;;
65552;SDS011;52465;51.560;14.368;2023-02-28T08:59:28;11.55;;;10.23;;
65552;SDS011;52465;51.560;14.368;2023-02-28T09:01:54;15.45;;;11.68;;
65552;SDS011;52465;51.560;14.368;2023-02-28T09:04:25;13.00;;;10.85;;
65552;SDS011;52465;51.560;14.368;2023-02-28T09:06:51;12.32;;;11.07;;
65552;SDS011;52465;51.560;14.368;2023-02-28T09:09:17;11.68;;;10.60;;
65552;SDS011;52465;51.560;14.368;2023-02-28T09:11:45;14.63;;;11.40;;
65552;SDS011;52465;51.560;14.368;2023-02-28T09:14:14;11.23;;;10.18;;
65552;SDS011;52465;51.560;14.368;2023-02-28T09:16:39;10.63;;;9.60;;
65552;SDS011;52465;51.560;14.368;2023-02-28T09:19:05;12.20;;;11.00;;
65552;SDS011;52465;51.560;14.368;2023-02-28T09:21:30;12.25;;;10.70;;
65552;SDS011;52465;51.560;14.368;2023-02-28T09:23:56;15.13;;;10.93;;
65552;SDS011;52465;51.560;14.368;2023-02-28T09:26:24;11.85;;;10.40;;
65552;SDS011;52465;51.560;14.368;2023-02-28T09:28:51;12.25;;;10.85;;
65552;SDS011;52465;51.560;14.368;2023-02-28T09:31:19;12.40;;;10.63;;
65552;SDS011;52465;51.560;14.368;2023-02-28T09:33:50;12.15;;;10.70;;
65552;SDS011;52465;51.560;14.368;2023-02-28T09:36:17;10.60;;;9.60;;
65552;SDS011;52465;51.560;14.368;2023-02-28T09:38:43;11.00;;;9.90;;
65552;SDS011;52465;51.560;14.368;2023-02-28T09:41:17;11.57;;;10.35;;
65552;SDS011;52465;51.560;14.368;2023-02-28T09:43:46;11.25;;;9.93;;
65552;SDS011;52465;51.560;14.368;2023-02-28T09:46:35;11.23;;;10.05;;
65552;SDS011;52465;51.560;14.368;2023-02-28T09:49:25;11.68;;;10.48;;
65552;SDS011;52465;51.560;14.368;2023-02-28T09:54:32;11.60;;;10.07;;
65552;SDS011;52465;51.560;14.368;2023-02-28T09:57:04;11.18;;;10.15;;
65552;SDS011;52465;51.560;14.368;2023-02-28T09:59:57;10.55;;;9.52;;
65552;SDS011;52465;51.560;14.368;2023-02-28T10:05:40;10.18;;;9.23;;
65552;SDS011;52465;51.560;14.368;2023-02-28T10:08:13;10.65;;;9.55;;
65552;SDS011;52465;51.560;14.368;2023-02-28T10:10:48;10.43;;;9.43;;
65552;SDS011;52465;51.560;14.368;2023-02-28T10:15:55;12.75;;;9.90;;
65552;SDS011;52465;51.560;14.368;2023-02-28T10:18:58;10.10;;;9.20;;
65552;SDS011;52465;51.560;14.368;2023-02-28T10:24:50;10.55;;;9.55;;
65552;SDS011;52465;51.560;14.368;2023-02-28T10:27:20;10.05;;;9.05;;
65552;SDS011;52465;51.560;14.368;2023-02-28T10:29:48;9.57;;;8.75;;
65552;SDS011;52465;51.560;14.368;2023-02-28T10:32:26;10.88;;;9.73;;
65552;SDS011;52465;51.560;14.368;2023-02-28T10:37:31;10.60;;;9.38;;
65552;SDS011;52465;51.560;14.368;2023-02-28T10:39:57;10.68;;;9.50;;
65552;SDS011;52465;51.560;14.368;2023-02-28T10:42:26;10.73;;;9.63;;
65552;SDS011;52465;51.560;14.368;2023-02-28T10:47:31;10.20;;;9.10;;
65552;SDS011;52465;51.560;14.368;2023-02-28T10:50:00;9.55;;;8.70;;
65552;SDS011;52465;51.560;14.368;2023-02-28T10:52:37;9.50;;;8.55;;
65552;SDS011;52465;51.560;14.368;2023-02-28T10:55:22;9.63;;;8.68;;
65552;SDS011;52465;51.560;14.368;2023-02-28T10:57:50;9.65;;;8.75;;
65552;SDS011;52465;51.560;14.368;2023-02-28T11:02:46;10.25;;;9.25;;
65552;SDS011;52465;51.560;14.368;2023-02-28T11:07:53;11.05;;;9.38;;
65552;SDS011;52465;51.560;14.368;2023-02-28T11:10:21;10.02;;;9.07;;
65552;SDS011;52465;51.560;14.368;2023-02-28T11:12:53;9.20;;;8.32;;
65552;SDS011;52465;51.560;14.368;2023-02-28T11:15:25;11.20;;;9.13;;
65552;SDS011;52465;51.560;14.368;2023-02-28T11:17:53;9.77;;;8.82;;
65552;SDS011;52465;51.560;14.368;2023-02-28T11:20:21;8.45;;;7.75;;
65552;SDS011;52465;51.560;14.368;2023-02-28T11:22:50;9.38;;;8.57;;
65552;SDS011;52465;51.560;14.368;2023-02-28T11:28:00;9.30;;;8.40;;
65552;SDS011;52465;51.560;14.368;2023-02-28T11:30:35;9.93;;;9.10;;
65552;SDS011;52465;51.560;14.368;2023-02-28T11:35:57;8.65;;;7.95;;
65552;SDS011;52465;51.560;14.368;2023-02-28T11:38:28;9.07;;;8.27;;
65552;SDS011;52465;51.560;14.368;2023-02-28T11:43:27;10.00;;;9.00;;
65552;SDS011;52465;51.560;14.368;2023-02-28T11:46:07;9.50;;;8.73;;
65552;SDS011;52465;51.560;14.368;2023-02-28T11:48:45;9.80;;;8.98;;
65552;SDS011;52465;51.560;14.368;2023-02-28T11:51:33;8.48;;;7.78;;
65552;SDS011;52465;51.560;14.368;2023-02-28T11:56:58;9.60;;;8.80;;
65552;SDS011;52465;51.560;14.368;2023-02-28T11:59:43;10.10;;;9.20;;
65552;SDS011;52465;51.560;14.368;2023-02-28T12:02:23;8.45;;;7.65;;
65552;SDS011;52465;51.560;14.368;2023-02-28T12:08:10;9.23;;;8.32;;
65552;SDS011;52465;51.560;14.368;2023-02-28T12:13:36;9.52;;;8.52;;
65552;SDS011;52465;51.560;14.368;2023-02-28T12:16:16;9.52;;;8.63;;
65552;SDS011;52465;51.560;14.368;2023-02-28T12:27:16;8.38;;;7.60;;
65552;SDS011;52465;51.560;14.368;2023-02-28T12:30:03;8.48;;;7.88;;
65552;SDS011;52465;51.560;14.368;2023-02-28T12:32:42;8.68;;;8.05;;
65552;SDS011;52465;51.560;14.368;2023-02-28T12:35:12;8.80;;;8.00;;
65552;SDS011;52465;51.560;14.368;2023-02-28T12:40:32;9.07;;;7.88;;
65552;SDS011;52465;51.560;14.368;2023-02-28T12:43:33;9.98;;;8.63;;
65552;SDS011;52465;51.560;14.368;2023-02-28T12:46:03;8.93;;;8.15;;
65552;SDS011;52465;51.560;14.368;2023-02-28T12:48:56;8.70;;;8.07;;
65552;SDS011;52465;51.560;14.368;2023-02-28T12:51:23;8.57;;;7.85;;
65552;SDS011;52465;51.560;14.368;2023-02-28T12:53:59;9.88;;;8.90;;
65552;SDS011;52465;51.560;14.368;2023-02-28T12:59:12;9.70;;;8.70;;
65552;SDS011;52465;51.560;14.368;2023-02-28T13:05:04;8.85;;;7.97;;
65552;SDS011;52465;51.560;14.368;2023-02-28T13:10:39;8.85;;;8.20;;
65552;SDS011;52465;51.560;14.368;2023-02-28T13:13:11;9.95;;;9.23;;
65552;SDS011;52465;51.560;14.368;2023-02-28T13:15:40;9.88;;;8.90;;
65552;SDS011;52465;51.560;14.368;2023-02-28T13:21:23;9.45;;;8.68;;
65552;SDS011;52465;51.560;14.368;2023-02-28T13:26:21;9.10;;;8.30;;
65552;SDS011;52465;51.560;14.368;2023-02-28T13:34:31;9.07;;;8.48;;
65552;SDS011;52465;51.560;14.368;2023-02-28T13:39:46;9.40;;;8.60;;
65552;SDS011;52465;51.560;14.368;2023-02-28T13:47:30;9.18;;;8.48;;
65552;SDS011;52465;51.560;14.368;2023-02-28T13:50:15;8.40;;;7.78;;
65552;SDS011;52465;51.560;14.368;2023-02-28T13:55:36;8.25;;;7.55;;
65552;SDS011;52465;51.560;14.368;2023-02-28T14:06:46;8.85;;;8.07;;
65552;SDS011;52465;51.560;14.368;2023-02-28T14:09:40;11.35;;;9.30;;
65552;SDS011;52465;51.560;14.368;2023-02-28T14:17:58;8.90;;;8.20;;
65552;SDS011;52465;51.560;14.368;2023-02-28T14:20:27;8.65;;;8.05;;
65552;SDS011;52465;51.560;14.368;2023-02-28T14:23:01;9.73;;;8.82;;
65552;SDS011;52465;51.560;14.368;2023-02-28T14:25:39;9.05;;;8.32;;
65552;SDS011;52465;51.560;14.368;2023-02-28T14:28:19;8.77;;;8.18;;
65552;SDS011;52465;51.560;14.368;2023-02-28T14:31:00;9.73;;;8.73;;
65552;SDS011;52465;51.560;14.368;2023-02-28T14:33:48;8.90;;;8.30;;
65552;SDS011;52465;51.560;14.368;2023-02-28T14:36:22;9.52;;;8.63;;
65552;SDS011;52465;51.560;14.368;2023-02-28T14:38:59;9.57;;;8.55;;
65552;SDS011;52465;51.560;14.368;2023-02-28T14:41:35;9.63;;;8.48;;
65552;SDS011;52465;51.560;14.368;2023-02-28T14:44:13;9.63;;;8.82;;
65552;SDS011;52465;51.560;14.368;2023-02-28T14:46:43;9.13;;;8.27;;
65552;SDS011;52465;51.560;14.368;2023-02-28T14:49:12;9.02;;;8.32;;
65552;SDS011;52465;51.560;14.368;2023-02-28T14:51:43;9.10;;;8.20;;
65552;SDS011;52465;51.560;14.368;2023-02-28T14:54:12;9.27;;;8.45;;
65552;SDS011;52465;51.560;14.368;2023-02-28T14:56:40;8.27;;;7.57;;
65552;SDS011;52465;51.560;14.368;2023-02-28T14:59:20;9.65;;;8.75;;
65552;SDS011;52465;51.560;14.368;2023-02-28T15:02:21;9.50;;;8.85;;
65552;SDS011;52465;51.560;14.368;2023-02-28T15:04:59;8.85;;;8.07;;
65552;SDS011;52465;51.560;14.368;2023-02-28T15:07:26;9.15;;;8.40;;
65552;SDS011;52465;51.560;14.368;2023-02-28T15:12:47;9.48;;;8.45;;
65552;SDS011;52465;51.560;14.368;2023-02-28T15:15:17;9.23;;;8.50;;
65552;SDS011;52465;51.560;14.368;2023-02-28T15:17:46;9.30;;;8.57;;
65552;SDS011;52465;51.560;14.368;2023-02-28T15:20:15;8.88;;;8.25;;
65552;SDS011;52465;51.560;14.368;2023-02-28T15:22:43;9.18;;;8.38;;
65552;SDS011;52465;51.560;14.368;2023-02-28T15:25:13;9.27;;;8.63;;
65552;SDS011;52465;51.560;14.368;2023-02-28T15:27:44;9.32;;;8.43;;
65552;SDS011;52465;51.560;14.368;2023-02-28T15:30:26;9.35;;;8.65;;
65552;SDS011;52465;51.560;14.368;2023-02-28T15:35:31;9.80;;;8.90;;
65552;SDS011;52465;51.560;14.368;2023-02-28T15:38:03;9.88;;;8.70;;
65552;SDS011;52465;51.560;14.368;2023-02-28T15:40:43;8.80;;;8.20;;
65552;SDS011;52465;51.560;14.368;2023-02-28T15:43:24;9.48;;;8.77;;
65552;SDS011;52465;51.560;14.368;2023-02-28T15:45:59;9.43;;;8.55;;
65552;SDS011;52465;51.560;14.368;2023-02-28T15:48:29;9.97;;;9.07;;
65552;SDS011;52465;51.560;14.368;2023-02-28T15:51:32;9.23;;;8.40;;
65552;SDS011;52465;51.560;14.368;2023-02-28T15:54:00;8.73;;;7.70;;
65552;SDS011;52465;51.560;14.368;2023-02-28T15:56:31;9.02;;;8.25;;
65552;SDS011;52465;51.560;14.368;2023-02-28T15:59:03;9.50;;;8.60;;
65552;SDS011;52465;51.560;14.368;2023-02-28T16:01:34;9.00;;;8.30;;
65552;SDS011;52465;51.560;14.368;2023-02-28T16:04:01;8.80;;;7.90;;
65552;SDS011;52465;51.560;14.368;2023-02-28T16:06:33;9.18;;;8.38;;
65552;SDS011;52465;51.560;14.368;2023-02-28T16:09:19;10.07;;;8.52;;
65552;SDS011;52465;51.560;14.368;2023-02-28T16:11:47;9.20;;;8.40;;
65552;SDS011;52465;51.560;14.368;2023-02-28T16:14:19;9.15;;;8.32;;
65552;SDS011;52465;51.560;14.368;2023-02-28T16:16:49;8.65;;;7.95;;
65552;SDS011;52465;51.560;14.368;2023-02-28T16:19:19;8.45;;;7.85;;
65552;SDS011;52465;51.560;14.368;2023-02-28T16:21:46;9.10;;;8.40;;
65552;SDS011;52465;51.560;14.368;2023-02-28T16:24:12;8.93;;;8.13;;
65552;SDS011;52465;51.560;14.368;2023-02-28T16:26:40;9.10;;;8.40;;
65552;SDS011;52465;51.560;14.368;2023-02-28T16:29:13;9.27;;;8.57;;
65552;SDS011;52465;51.560;14.368;2023-02-28T16:31:49;9.07;;;8.38;;
65552;SDS011;52465;51.560;14.368;2023-02-28T16:34:15;9.00;;;8.20;;
65552;SDS011;52465;51.560;14.368;2023-02-28T16:36:40;9.10;;;8.32;;
65552;SDS011;52465;51.560;14.368;2023-02-28T16:39:06;8.93;;;8.15;;
65552;SDS011;52465;51.560;14.368;2023-02-28T16:41:32;9.25;;;8.45;;
65552;SDS011;52465;51.560;14.368;2023-02-28T16:43:59;9.48;;;8.60;;
65552;SDS011;52465;51.560;14.368;2023-02-28T16:46:29;9.50;;;8.68;;
65552;SDS011;52465;51.560;14.368;2023-02-28T16:48:58;8.25;;;7.65;;
65552;SDS011;52465;51.560;14.368;2023-02-28T16:51:23;9.10;;;8.40;;
65552;SDS011;52465;51.560;14.368;2023-02-28T16:56:33;11.30;;;8.38;;
65552;SDS011;52465;51.560;14.368;2023-02-28T16:59:01;10.57;;;8.50;;
65552;SDS011;52465;51.560;14.368;2023-02-28T17:01:29;9.52;;;8.63;;
65552;SDS011;52465;51.560;14.368;2023-02-28T17:03:55;9.95;;;8.45;;
65552;SDS011;52465;51.560;14.368;2023-02-28T17:06:25;9.40;;;8.52;;